createdAt,value
2023-05-24T00:01:50.726Z,101373.34
2023-05-24T00:04:51.777Z,101386.50
2023-05-24T00:07:52.731Z,101387.25
2023-05-24T00:10:53.906Z,101384.53
2023-05-24T00:13:54.704Z,101388.75
2023-05-24T00:16:55.877Z,101393.13
2023-05-24T00:19:56.715Z,101388.25
2023-05-24T00:22:58.765Z,101379.72
2023-05-24T00:25:59.740Z,101379.59
2023-05-24T00:29:00.792Z,101379.59
2023-05-24T00:32:01.767Z,101377.38
2023-05-24T00:35:03.777Z,101378.63
2023-05-24T00:38:04.693Z,101380.19
2023-05-24T00:41:07.744Z,101377.69
2023-05-24T00:44:08.701Z,101377.69
2023-05-24T00:47:09.727Z,101382.38
2023-05-24T00:50:12.704Z,101386.97
2023-05-24T00:53:15.804Z,101385.00
2023-05-24T00:56:16.707Z,101380.69
2023-05-24T00:59:17.743Z,101373.53
2023-05-24T01:02:18.725Z,101378.44
2023-05-24T01:05:19.770Z,101373.53
2023-05-24T01:08:40.689Z,101371.25
2023-05-24T01:12:00.820Z,101367.84
2023-05-24T01:15:20.679Z,101370.06
2023-05-24T01:18:24.754Z,101373.53
2023-05-24T01:21:25.706Z,101367.75
2023-05-24T01:24:29.779Z,101366.38
2023-05-24T01:27:30.676Z,101379.72
2023-05-24T01:30:31.760Z,101374.56
2023-05-24T01:33:32.706Z,101375.13
2023-05-24T01:36:33.732Z,101377.25
2023-05-24T01:39:35.711Z,101379.97
2023-05-24T01:42:54.747Z,101385.41
2023-05-24T01:46:01.747Z,101392.03
2023-05-24T01:49:10.728Z,101383.13
2023-05-24T01:52:13.733Z,101392.84
2023-05-24T01:55:14.763Z,101388.88
2023-05-24T01:58:16.775Z,101385.69
2023-05-24T02:01:17.811Z,101392.09
2023-05-24T02:04:20.709Z,101397.47
2023-05-24T02:07:21.740Z,101398.63
2023-05-24T02:10:23.693Z,101400.75
2023-05-24T02:13:25.813Z,101398.81
2023-05-24T02:16:26.843Z,101397.69
2023-05-24T02:19:27.802Z,101399.75
2023-05-24T02:22:28.693Z,101400.75
2023-05-24T02:25:29.748Z,101394.56
2023-05-24T02:28:30.683Z,101393.31
2023-05-24T02:31:34.789Z,101394.31
2023-05-24T02:34:35.666Z,101390.16
2023-05-24T02:37:36.743Z,101395.09
2023-05-24T02:40:37.672Z,101387.94
2023-05-24T02:43:38.738Z,101390.84
2023-05-24T02:46:39.796Z,101401.53
2023-05-24T02:49:40.724Z,101399.06
2023-05-24T02:52:41.681Z,101401.03
2023-05-24T02:55:42.698Z,101406.47
2023-05-24T02:58:46.689Z,101404.59
2023-05-24T03:01:47.767Z,101409.69
2023-05-24T03:04:48.693Z,101410.47
2023-05-24T03:07:49.680Z,101405.50
2023-05-24T03:10:50.710Z,101416.16
2023-05-24T03:13:51.673Z,101405.69
2023-05-24T03:16:52.739Z,101415.50
2023-05-24T03:19:53.701Z,101415.38
2023-05-24T03:22:57.691Z,101420.56
2023-05-24T03:25:58.666Z,101417.63
2023-05-24T03:29:00.683Z,101420.81
2023-05-24T03:32:04.745Z,101421.50
2023-05-24T03:35:07.709Z,101425.47
2023-05-24T03:38:08.666Z,101425.03
2023-05-24T03:41:11.694Z,101433.16
2023-05-24T03:44:13.691Z,101426.50
2023-05-24T03:47:14.683Z,101430.34
2023-05-24T03:50:15.684Z,101437.13
2023-05-24T03:53:16.673Z,101433.94
2023-05-24T03:56:17.696Z,101429.94
2023-05-24T03:59:18.672Z,101438.84
2023-05-24T04:02:19.708Z,101447.00
2023-05-24T04:05:20.654Z,101442.56
2023-05-24T04:08:30.720Z,101439.78
2023-05-24T04:11:34.672Z,101440.28
2023-05-24T04:14:38.671Z,101436.59
2023-05-24T04:17:41.844Z,101436.06
2023-05-24T04:20:42.774Z,101411.31
2023-05-24T04:23:43.672Z,101444.47
2023-05-24T04:26:44.696Z,101441.50
2023-05-24T04:29:45.660Z,101440.22
2023-05-24T04:32:47.723Z,101438.69
2023-05-24T04:35:48.691Z,101448.13
2023-05-24T04:38:49.667Z,101447.66
2023-05-24T04:41:50.680Z,101455.88
2023-05-24T04:44:51.662Z,101458.69
2023-05-24T04:47:52.910Z,101462.19
2023-05-24T04:50:53.657Z,101463.88
2023-05-24T04:53:54.676Z,101439.72
2023-05-24T04:56:55.669Z,101467.69
2023-05-24T04:59:56.661Z,101470.03
2023-05-24T05:02:57.742Z,101468.31
2023-05-24T05:05:58.661Z,101475.84
2023-05-24T05:08:59.690Z,101474.44
2023-05-24T05:12:00.671Z,101475.72
2023-05-24T05:15:01.768Z,101475.75
2023-05-24T05:18:02.701Z,101471.81
2023-05-24T05:21:03.640Z,101478.91
2023-05-24T05:24:04.664Z,101471.50
2023-05-24T05:27:05.658Z,101483.44
2023-05-24T05:30:06.631Z,101474.28
2023-05-24T05:33:07.688Z,101482.47
2023-05-24T05:36:08.648Z,101487.66
2023-05-24T05:39:09.667Z,101494.09
2023-05-24T05:42:10.648Z,101499.47
2023-05-24T05:45:11.698Z,101500.69
2023-05-24T05:48:12.714Z,101502.34
2023-05-24T05:51:13.676Z,101506.13
2023-05-24T05:54:20.676Z,101512.47
2023-05-24T05:57:22.689Z,101516.25
2023-05-24T06:00:23.663Z,101513.81
2023-05-24T06:03:24.870Z,101519.16
2023-05-24T06:06:25.657Z,101521.94
2023-05-24T06:09:26.668Z,101516.69
2023-05-24T06:12:27.653Z,101519.41
2023-05-24T06:15:29.639Z,101519.06
2023-05-24T06:18:32.683Z,101520.53
2023-05-24T06:21:33.649Z,101525.97
2023-05-24T06:24:35.675Z,101528.41
2023-05-24T06:27:36.634Z,101524.44
2023-05-24T06:30:37.811Z,101526.09
2023-05-24T06:33:46.799Z,101530.47
2023-05-24T06:36:50.669Z,101536.34
2023-05-24T06:39:51.647Z,101532.41
2023-05-24T06:42:52.712Z,101545.97
2023-05-24T06:45:53.656Z,101550.22
2023-05-24T06:48:54.876Z,101555.97
2023-05-24T06:51:55.638Z,101562.00
2023-05-24T06:54:56.634Z,101549.59
2023-05-24T06:57:57.701Z,101549.72
2023-05-24T07:00:58.644Z,101550.34
2023-05-24T07:03:59.651Z,101546.28
2023-05-24T07:07:00.645Z,101547.59
2023-05-24T07:10:01.673Z,101549.41
2023-05-24T07:13:02.699Z,101555.50
2023-05-24T07:15:56.662Z,101570.28
2023-05-24T07:18:57.697Z,101561.84
2023-05-24T07:21:58.655Z,101570.72
2023-05-24T07:24:59.646Z,101569.69
2023-05-24T07:28:00.632Z,101575.06
2023-05-24T07:30:54.637Z,101567.91
2023-05-24T07:33:55.618Z,101564.56
2023-05-24T07:36:56.655Z,101569.53
2023-05-24T07:39:57.745Z,101570.28
2023-05-24T07:42:58.645Z,101569.63
2023-05-24T07:45:59.731Z,101576.69
2023-05-24T07:49:00.661Z,101572.09
2023-05-24T07:52:04.714Z,101575.47
2023-05-24T07:55:05.678Z,101579.94
2023-05-24T07:58:06.671Z,101576.63
2023-05-24T08:01:07.684Z,101579.44
2023-05-24T08:04:09.762Z,101579.94
2023-05-24T08:07:11.711Z,101579.28
2023-05-24T08:10:12.757Z,101588.06
2023-05-24T08:13:13.658Z,101589.69
2023-05-24T08:16:14.709Z,101586.88
2023-05-24T08:19:15.646Z,101594.81
2023-05-24T08:22:16.984Z,101599.97
2023-05-24T08:25:17.640Z,101600.28
2023-05-24T08:28:18.708Z,101604.31
2023-05-24T08:31:19.656Z,101594.72
2023-05-24T08:34:20.728Z,101603.00
2023-05-24T08:37:21.613Z,101610.88
2023-05-24T08:40:22.688Z,101601.16
2023-05-24T08:43:23.629Z,101603.16
2023-05-24T08:46:24.919Z,101606.47
2023-05-24T08:49:25.630Z,101611.78
2023-05-24T08:52:27.660Z,101608.44
2023-05-24T08:55:29.942Z,101614.00
2023-05-24T08:58:31.707Z,101633.72
2023-05-24T09:01:33.999Z,101629.97
2023-05-24T09:04:35.665Z,101618.09
2023-05-24T09:07:36.670Z,101621.56
2023-05-24T09:10:49.318Z,101625.69
2023-05-24T09:13:54.631Z,101621.06
2023-05-24T09:16:56.655Z,101628.16
2023-05-24T09:19:57.668Z,101628.81
2023-05-24T09:22:58.880Z,101618.25
2023-05-24T09:25:59.643Z,101622.97
2023-05-24T09:29:00.716Z,101624.69
2023-05-24T09:32:01.760Z,101624.94
2023-05-24T09:35:02.669Z,101627.31
2023-05-24T09:38:09.624Z,101637.81
2023-05-24T09:41:14.676Z,101641.03
2023-05-24T09:44:15.607Z,101641.81
2023-05-24T09:47:16.747Z,101636.16
2023-05-24T09:50:18.643Z,101629.88
2023-05-24T09:53:19.725Z,101631.56
2023-05-24T09:56:20.605Z,101635.56
2023-05-24T09:59:21.669Z,101643.09
2023-05-24T10:02:22.604Z,101644.25
2023-05-24T10:05:26.673Z,101644.47
2023-05-24T10:08:28.619Z,101650.72
2023-05-24T10:11:29.682Z,101654.44
2023-05-24T10:14:30.634Z,101644.47
2023-05-24T10:17:34.715Z,101645.03
2023-05-24T10:20:35.640Z,101645.81
2023-05-24T10:23:36.714Z,101651.09
2023-05-24T10:26:37.597Z,101649.25
2023-05-24T10:29:58.639Z,101656.00
2023-05-24T10:33:00.651Z,101646.72
2023-05-24T10:36:01.664Z,101652.44
2023-05-24T10:39:02.605Z,101651.50
2023-05-24T10:42:03.668Z,101658.34
2023-05-24T10:45:04.613Z,101655.63
2023-05-24T10:48:05.688Z,101657.38
2023-05-24T10:51:06.597Z,101655.78
2023-05-24T10:54:09.004Z,101650.56
2023-05-24T10:57:12.622Z,101645.53
2023-05-24T11:00:36.207Z,101644.06
2023-05-24T11:03:37.626Z,101651.25
2023-05-24T11:06:58.652Z,101653.75
2023-05-24T11:10:03.625Z,101642.47
2023-05-24T11:13:10.679Z,101644.19
2023-05-24T11:16:11.599Z,101644.47
2023-05-24T11:19:12.647Z,101647.91
2023-05-24T11:22:13.632Z,101644.47
2023-05-24T11:25:14.797Z,101644.25
2023-05-24T11:28:15.643Z,101650.19
2023-05-24T11:31:21.699Z,101650.59
2023-05-24T11:34:24.604Z,101651.69
2023-05-24T11:37:38.402Z,101650.22
2023-05-24T11:40:50.605Z,101651.38
2023-05-24T11:43:51.664Z,101655.16
2023-05-24T11:46:52.606Z,101653.56
2023-05-24T11:49:53.720Z,101654.97
2023-05-24T11:52:54.600Z,101654.16
2023-05-24T11:55:55.641Z,101651.66
2023-05-24T11:59:02.597Z,101659.94
2023-05-24T12:02:05.859Z,101660.81
2023-05-24T12:05:06.743Z,101656.00
2023-05-24T12:08:21.648Z,101655.63
2023-05-24T12:11:22.612Z,101656.28
2023-05-24T12:14:30.647Z,101660.81
2023-05-24T12:17:31.752Z,101653.31
2023-05-24T12:20:32.671Z,101655.84
2023-05-24T12:23:35.607Z,101658.44
2023-05-24T12:26:36.876Z,101658.75
2023-05-24T12:29:37.703Z,101668.88
2023-05-24T12:32:38.684Z,101663.31
2023-05-24T12:35:39.615Z,101666.28
2023-05-24T12:38:40.632Z,101667.72
2023-05-24T12:41:42.607Z,101676.19
2023-05-24T12:44:48.625Z,101676.25
2023-05-24T12:47:49.643Z,101674.50
2023-05-24T12:50:50.640Z,101671.97
2023-05-24T12:53:51.569Z,101671.91
2023-05-24T12:56:55.599Z,101672.53
2023-05-24T12:59:56.588Z,101656.44
2023-05-24T13:02:59.743Z,101680.81
2023-05-24T13:06:00.607Z,101667.06
2023-05-24T13:09:01.627Z,101661.34
2023-05-24T13:12:02.577Z,101666.28
2023-05-24T13:15:03.632Z,101662.38
2023-05-24T13:18:04.672Z,101654.63
2023-05-24T13:21:08.846Z,101656.28
2023-05-24T13:24:12.606Z,101654.09
2023-05-24T13:27:13.826Z,101656.41
2023-05-24T13:30:14.597Z,101659.59
2023-05-24T13:33:15.664Z,101662.63
2023-05-24T13:36:16.573Z,101659.19
2023-05-24T13:39:17.598Z,101661.44
2023-05-24T13:42:18.679Z,101663.72
2023-05-24T13:45:19.648Z,101666.38
2023-05-24T13:48:20.729Z,101662.25
2023-05-24T13:51:25.637Z,101657.72
2023-05-24T13:54:26.578Z,101658.34
2023-05-24T13:57:36.587Z,101663.72
2023-05-24T14:00:48.590Z,101659.09
2023-05-24T14:03:49.620Z,101667.72
2023-05-24T14:06:50.588Z,101662.59
2023-05-24T14:09:51.611Z,101667.84
2023-05-24T14:13:07.763Z,101656.69
2023-05-24T14:16:13.634Z,101662.81
2023-05-24T14:19:14.583Z,101665.06
2023-05-24T14:22:15.612Z,101657.56
2023-05-24T14:25:16.622Z,101664.63
2023-05-24T14:28:17.804Z,101661.63
2023-05-24T14:31:18.577Z,101663.31
2023-05-24T14:34:19.640Z,101662.34
2023-05-24T14:37:20.576Z,101662.63
2023-05-24T14:40:21.674Z,101663.91
2023-05-24T14:43:22.575Z,101665.94
2023-05-24T14:46:23.628Z,101658.91
2023-05-24T14:49:24.567Z,101658.53
2023-05-24T14:52:25.601Z,101660.34
2023-05-24T14:55:26.564Z,101659.09
2023-05-24T14:58:27.646Z,101667.34
2023-05-24T15:01:28.612Z,101643.84
2023-05-24T15:04:29.627Z,101662.56
2023-05-24T15:07:30.621Z,101670.19
2023-05-24T15:10:31.599Z,101663.97
2023-05-24T15:13:32.568Z,101666.50
2023-05-24T15:16:33.656Z,101668.63
2023-05-24T15:19:34.632Z,101667.19
2023-05-24T15:22:35.597Z,101663.72
2023-05-24T15:25:36.603Z,101666.72
2023-05-24T15:28:37.781Z,101666.97
2023-05-24T15:31:38.589Z,101661.44
2023-05-24T15:34:39.629Z,101651.75
2023-05-24T15:37:40.591Z,101663.19
2023-05-24T15:40:41.833Z,101653.34
2023-05-24T15:43:42.578Z,101660.38
2023-05-24T15:46:43.722Z,101650.63
2023-05-24T15:49:44.650Z,101662.59
2023-05-24T15:52:45.634Z,101654.16
2023-05-24T15:55:46.709Z,101670.91
2023-05-24T15:58:47.619Z,101647.69
2023-05-24T16:01:48.646Z,101650.84
2023-05-24T16:04:49.596Z,101646.69
2023-05-24T16:07:50.552Z,101648.66
2023-05-24T16:10:51.607Z,101647.44
2023-05-24T16:13:52.552Z,101649.16
2023-05-24T16:16:54.231Z,101644.47
2023-05-24T16:19:56.589Z,101644.03
2023-05-24T16:23:00.649Z,101650.66
2023-05-24T16:26:01.604Z,101645.16
2023-05-24T16:29:02.669Z,101656.41
2023-05-24T16:32:03.606Z,101654.66
2023-05-24T16:35:04.581Z,101658.13
2023-05-24T16:38:05.552Z,101656.00
2023-05-24T16:41:06.613Z,101653.53
2023-05-24T16:44:07.556Z,101656.75
2023-05-24T16:47:08.707Z,101657.81
2023-05-24T16:50:09.585Z,101657.94
2023-05-24T16:53:10.649Z,101652.44
2023-05-24T16:56:11.561Z,101653.47
2023-05-24T16:59:12.596Z,101652.88
2023-05-24T17:02:13.588Z,101650.56
2023-05-24T17:05:14.615Z,101653.69
2023-05-24T17:08:15.571Z,101658.91
2023-05-24T17:11:16.585Z,101657.50
2023-05-24T17:14:17.577Z,101658.59
2023-05-24T17:17:18.600Z,101657.69
2023-05-24T17:20:19.597Z,101662.50
2023-05-24T17:23:21.051Z,101655.03
2023-05-24T17:26:21.528Z,101654.78
2023-05-24T17:29:22.709Z,101655.03
2023-05-24T17:32:23.590Z,101656.50
2023-05-24T17:35:24.604Z,101658.25
2023-05-24T17:38:25.571Z,101654.66
2023-05-24T17:41:26.590Z,101660.75
2023-05-24T17:44:27.536Z,101653.25
2023-05-24T17:47:28.616Z,101651.91
2023-05-24T17:50:29.556Z,101653.38
2023-05-24T17:53:31.952Z,101657.34
2023-05-24T17:56:34.520Z,101662.81
2023-05-24T17:59:35.586Z,101661.81
2023-05-24T18:02:36.568Z,101665.13
2023-05-24T18:05:37.564Z,101664.59
2023-05-24T18:08:38.738Z,101666.84
2023-05-24T18:11:39.547Z,101663.84
2023-05-24T18:14:40.580Z,101668.56
2023-05-24T18:17:41.678Z,101668.31
2023-05-24T18:20:42.607Z,101669.72
2023-05-24T18:23:46.580Z,101673.53
2023-05-24T18:26:47.602Z,101672.44
2023-05-24T18:29:48.732Z,101678.91
2023-05-24T18:33:04.310Z,101684.59
2023-05-24T18:36:08.563Z,101683.84
2023-05-24T18:39:09.528Z,101686.44
2023-05-24T18:42:10.574Z,101693.16
2023-05-24T18:45:11.499Z,101689.75
2023-05-24T18:48:12.573Z,101692.03
2023-05-24T18:51:13.502Z,101693.47
2023-05-24T18:54:14.604Z,101699.53
2023-05-24T18:57:15.511Z,101698.09
2023-05-24T19:00:16.583Z,101698.66
2023-05-24T19:03:19.917Z,101696.34
2023-05-24T19:06:21.572Z,101696.59
2023-05-24T19:09:22.585Z,101706.41
2023-05-24T19:12:23.562Z,101705.84
2023-05-24T19:15:24.516Z,101719.28
2023-05-24T19:18:25.585Z,101711.78
2023-05-24T19:21:26.566Z,101711.59
2023-05-24T19:24:27.569Z,101709.31
2023-05-24T19:27:28.544Z,101716.16
2023-05-24T19:30:29.780Z,101715.94
2023-05-24T19:33:30.534Z,101712.22
2023-05-24T19:36:32.578Z,101718.59
2023-05-24T19:39:33.537Z,101721.41
2023-05-24T19:42:34.563Z,101714.22
2023-05-24T19:45:35.689Z,101709.84
2023-05-24T19:48:36.565Z,101713.69
2023-05-24T19:51:37.518Z,101723.78
2023-05-24T19:54:38.570Z,101714.88
2023-05-24T19:57:39.546Z,101713.16
2023-05-24T20:00:40.574Z,101712.47
2023-05-24T20:03:41.626Z,101710.69
2023-05-24T20:06:44.546Z,101721.28
2023-05-24T20:09:45.528Z,101709.97
2023-05-24T20:12:46.571Z,101713.88
2023-05-24T20:15:47.554Z,101717.47
2023-05-24T20:18:48.536Z,101717.41
2023-05-24T20:21:49.519Z,101717.78
2023-05-24T20:24:50.584Z,101726.19
2023-05-24T20:27:55.510Z,101724.06
2023-05-24T20:30:56.722Z,101725.44
2023-05-24T20:33:58.498Z,101714.94
2023-05-24T20:36:59.570Z,101717.69
2023-05-24T20:40:00.514Z,101714.75
2023-05-24T20:43:01.575Z,101710.28
2023-05-24T20:46:02.605Z,101708.75
2023-05-24T20:49:03.539Z,101710.25
2023-05-24T20:52:04.548Z,101713.63
2023-05-24T20:55:05.550Z,101713.88
2023-05-24T20:58:06.518Z,101714.63
2023-05-24T21:01:07.586Z,101708.09
2023-05-24T21:04:08.489Z,101713.97
2023-05-24T21:07:09.559Z,101708.25
2023-05-24T21:10:10.518Z,101712.19
2023-05-24T21:13:11.566Z,101712.09
2023-05-24T21:16:12.507Z,101714.22
2023-05-24T21:19:13.585Z,101709.84
2023-05-24T21:22:14.537Z,101702.50
2023-05-24T21:25:15.567Z,101701.47
2023-05-24T21:28:17.526Z,101709.38
2023-05-24T21:31:18.745Z,101713.78
2023-05-24T21:34:19.491Z,101720.28
2023-05-24T21:37:20.562Z,101716.31
2023-05-24T21:40:21.501Z,101716.09
2023-05-24T21:43:22.560Z,101712.41
2023-05-24T21:46:23.522Z,101719.34
2023-05-24T21:49:24.566Z,101722.41
2023-05-24T21:52:25.498Z,101724.53
2023-05-24T21:55:26.562Z,101712.72
2023-05-24T21:58:27.497Z,101708.28
2023-05-24T22:01:28.595Z,101710.47
2023-05-24T22:04:29.517Z,101710.47
2023-05-24T22:07:30.575Z,101715.81
2023-05-24T22:10:31.516Z,101704.34
2023-05-24T22:13:32.533Z,101707.06
2023-05-24T22:16:33.548Z,101709.19
2023-05-24T22:19:39.969Z,101702.59
2023-05-24T22:22:41.498Z,101708.09
2023-05-24T22:25:42.779Z,101702.84
2023-05-24T22:28:45.478Z,101713.00
2023-05-24T22:31:46.757Z,101706.84
2023-05-24T22:34:47.513Z,101701.13
2023-05-24T22:37:50.542Z,101699.66
2023-05-24T23:00:46.529Z,101705.72
2023-05-24T23:03:34.525Z,101704.50
2023-05-24T23:06:43.498Z,101694.47
2023-05-24T23:09:44.557Z,101700.41
2023-05-24T23:12:48.496Z,101705.38
2023-05-24T23:15:49.548Z,101703.25
2023-05-24T23:18:50.506Z,101691.06
2023-05-24T23:21:51.541Z,101695.88
2023-05-24T23:24:55.475Z,101693.78
2023-05-24T23:27:56.521Z,101691.53
2023-05-24T23:30:57.521Z,101690.06
2023-05-24T23:33:58.683Z,101692.28
2023-05-24T23:36:59.480Z,101697.97
2023-05-24T23:40:00.533Z,101691.31
2023-05-24T23:43:01.493Z,101696.25
2023-05-24T23:46:02.532Z,101697.72
2023-05-24T23:49:03.501Z,101693.91
2023-05-24T23:52:04.553Z,101696.97
2023-05-24T23:55:05.530Z,101701.00
2023-05-24T23:58:06.550Z,101705.75
